createdAt,value
2019-01-16T00:03:01.149Z,7.39
2019-01-16T00:06:09.666Z,7.36
2019-01-16T00:09:10.723Z,7.33
2019-01-16T00:12:19.179Z,7.30
2019-01-16T00:15:11.503Z,7.23
2019-01-16T00:18:04.171Z,7.20
2019-01-16T00:21:12.647Z,7.20
2019-01-16T00:24:21.013Z,7.20
2019-01-16T00:27:21.905Z,7.17
2019-01-16T00:33:39.803Z,7.12
2019-01-16T00:36:48.259Z,7.16
2019-01-16T00:39:56.766Z,7.12
2019-01-16T00:42:57.524Z,7.14
2019-01-16T00:46:06.245Z,7.10
2019-01-16T00:49:04.366Z,7.08
2019-01-16T00:51:56.650Z,7.08
2019-01-16T00:54:44.224Z,7.08
2019-01-16T00:57:42.448Z,7.06
2019-01-16T01:00:34.835Z,7.06
2019-01-16T01:03:33.237Z,7.07
2019-01-16T01:06:16.839Z,7.05
2019-01-16T01:09:08.938Z,7.08
2019-01-16T01:11:49.885Z,7.07
2019-01-16T01:14:36.264Z,7.08
2019-01-16T01:17:27.875Z,7.09
2019-01-16T01:20:20.080Z,7.11
2019-01-16T01:23:18.430Z,7.07
2019-01-16T01:26:02.803Z,7.10
2019-01-16T01:28:42.829Z,7.09
2019-01-16T01:31:41.083Z,7.06
2019-01-16T01:34:33.136Z,7.03
2019-01-16T01:37:40.076Z,6.92
2019-01-16T01:40:48.587Z,6.87
2019-01-16T01:43:50.189Z,6.83
2019-01-16T01:46:58.667Z,6.87
2019-01-16T01:49:40.119Z,6.91
2019-01-16T01:52:28.313Z,6.87
2019-01-16T01:55:32.365Z,6.86
2019-01-16T01:58:09.222Z,6.87
2019-01-16T02:00:51.901Z,6.85
2019-01-16T02:03:59.220Z,6.87
2019-01-16T02:06:48.607Z,6.86
2019-01-16T02:09:40.489Z,6.91
2019-01-16T02:12:28.479Z,6.88
2019-01-16T02:15:16.246Z,6.86
2019-01-16T02:18:09.613Z,6.87
2019-01-16T02:21:17.329Z,6.90
2019-01-16T02:24:06.603Z,6.92
2019-01-16T02:26:55.081Z,6.96
2019-01-16T02:29:44.381Z,6.91
2019-01-16T02:32:32.168Z,6.93
2019-01-16T02:35:24.347Z,6.93
2019-01-16T02:38:19.079Z,6.98
2019-01-16T02:41:08.430Z,6.96
2019-01-16T02:44:09.536Z,6.98
2019-01-16T02:47:13.888Z,6.99
2019-01-16T02:50:06.168Z,6.98
2019-01-16T02:52:59.110Z,7.00
2019-01-16T02:55:54.640Z,7.00
2019-01-16T02:58:42.430Z,7.00
2019-01-16T03:01:20.998Z,7.00
2019-01-16T03:04:08.693Z,7.02
2019-01-16T03:07:00.654Z,6.97
2019-01-16T03:09:50.751Z,6.96
2019-01-16T03:12:45.822Z,6.98
2019-01-16T03:15:50.187Z,6.95
2019-01-16T03:18:38.197Z,6.88
2019-01-16T03:21:26.121Z,6.89
2019-01-16T03:24:19.575Z,6.89
2019-01-16T03:27:07.508Z,6.85
2019-01-16T03:30:03.111Z,6.87
2019-01-16T03:32:58.047Z,6.84
2019-01-16T03:36:06.529Z,6.81
2019-01-16T03:39:01.736Z,6.82
2019-01-16T03:42:10.350Z,6.75
2019-01-16T03:44:58.892Z,6.69
2019-01-16T03:48:07.692Z,6.70
2019-01-16T03:51:08.535Z,6.66
2019-01-16T03:57:23.810Z,6.65
2019-01-16T04:06:55.308Z,6.47
2019-01-16T04:09:56.669Z,6.47
2019-01-16T04:13:05.177Z,6.46
2019-01-16T04:15:57.129Z,6.46
2019-01-16T04:19:05.501Z,6.52
2019-01-16T04:22:09.368Z,6.56
2019-01-16T04:25:10.693Z,6.58
2019-01-16T04:28:19.114Z,6.62
2019-01-16T04:31:22.845Z,6.68
2019-01-16T04:34:31.379Z,6.66
2019-01-16T04:37:26.470Z,6.71
2019-01-16T04:40:34.896Z,6.73
2019-01-16T04:43:31.906Z,6.72
2019-01-16T04:49:47.588Z,6.75
2019-01-16T04:52:56.039Z,6.82
2019-01-16T04:56:04.520Z,6.84
2019-01-16T04:59:06.506Z,6.85
2019-01-16T05:02:04.792Z,6.87
2019-01-16T05:04:56.979Z,6.87
2019-01-16T05:07:44.603Z,6.89
2019-01-16T05:10:33.447Z,6.94
2019-01-16T05:13:21.604Z,6.94
2019-01-16T05:16:14.038Z,6.93
2019-01-16T05:19:02.064Z,6.97
2019-01-16T05:21:59.015Z,6.99
2019-01-16T05:24:42.655Z,6.97
2019-01-16T05:27:35.097Z,7.00
2019-01-16T05:30:24.449Z,7.03
2019-01-16T05:33:13.835Z,7.02
2019-01-16T05:36:18.049Z,7.07
2019-01-16T05:39:07.651Z,7.09
2019-01-16T05:41:57.013Z,7.09
2019-01-16T05:44:49.001Z,7.13
2019-01-16T05:47:29.441Z,7.10
2019-01-16T05:50:13.066Z,7.11
2019-01-16T05:53:01.975Z,7.16
2019-01-16T05:55:49.590Z,7.15
2019-01-16T05:58:37.274Z,7.16
2019-01-16T06:01:45.747Z,7.14
2019-01-16T06:04:46.528Z,7.19
2019-01-16T06:07:27.940Z,7.23
2019-01-16T06:10:20.099Z,7.20
2019-01-16T06:13:12.264Z,7.25
2019-01-16T06:16:04.194Z,7.26
2019-01-16T06:19:08.436Z,7.30
2019-01-16T06:21:55.434Z,7.34
2019-01-16T06:24:47.441Z,7.26
2019-01-16T06:27:45.499Z,7.29
2019-01-16T06:30:47.126Z,7.26
2019-01-16T06:33:42.134Z,7.23
2019-01-16T06:36:26.500Z,7.25
2019-01-16T06:39:13.840Z,7.25
2019-01-16T06:42:03.157Z,7.23
2019-01-16T06:44:51.110Z,7.25
2019-01-16T06:50:58.540Z,7.21
2019-01-16T06:53:43.291Z,7.18
2019-01-16T06:56:31.556Z,7.16
2019-01-16T06:59:14.260Z,7.18
2019-01-16T07:02:12.500Z,7.21
2019-01-16T07:05:10.564Z,7.16
2019-01-16T07:08:06.114Z,7.16
2019-01-16T07:11:13.894Z,7.13
2019-01-16T07:14:18.212Z,7.12
2019-01-16T07:17:04.175Z,7.10
2019-01-16T07:19:51.927Z,7.10
2019-01-16T07:22:41.285Z,7.11
2019-01-16T07:25:33.686Z,7.13
2019-01-16T07:28:29.866Z,7.10
2019-01-16T07:31:24.395Z,7.09
2019-01-16T07:34:26.173Z,7.13
2019-01-16T07:37:13.977Z,7.08
2019-01-16T07:39:52.690Z,7.08
2019-01-16T07:42:46.976Z,7.08
2019-01-16T07:45:36.941Z,7.11
2019-01-16T07:48:28.856Z,7.08
2019-01-16T07:51:24.206Z,7.06
2019-01-16T07:54:13.818Z,7.05
2019-01-16T07:57:05.187Z,7.05
2019-01-16T07:59:52.759Z,7.03
2019-01-16T08:02:40.216Z,7.04
2019-01-16T08:05:27.904Z,7.07
2019-01-16T08:08:10.565Z,7.08
2019-01-16T08:10:59.835Z,7.05
2019-01-16T08:13:47.373Z,7.04
2019-01-16T08:16:39.795Z,7.04
2019-01-16T08:19:38.092Z,7.07
2019-01-16T08:22:25.982Z,7.00
2019-01-16T08:25:13.809Z,7.00
2019-01-16T08:28:13.183Z,7.02
2019-01-16T08:31:17.708Z,7.02
2019-01-16T08:34:07.047Z,7.05
2019-01-16T08:36:56.861Z,7.03
2019-01-16T08:39:49.359Z,7.04
2019-01-16T08:42:46.287Z,7.03
2019-01-16T08:45:32.840Z,6.98
2019-01-16T08:48:20.807Z,6.99
2019-01-16T08:51:03.273Z,7.04
2019-01-16T08:53:50.977Z,7.02
2019-01-16T08:56:58.406Z,7.01
2019-01-16T08:59:45.935Z,6.99
2019-01-16T09:02:38.204Z,6.97
2019-01-16T09:05:27.047Z,7.02
2019-01-16T09:08:19.527Z,7.03
2019-01-16T09:11:11.479Z,7.01
2019-01-16T09:14:12.512Z,7.04
2019-01-16T09:17:08.833Z,7.06
2019-01-16T09:19:47.688Z,7.10
2019-01-16T09:22:35.396Z,7.10
2019-01-16T09:25:14.651Z,7.06
2019-01-16T09:28:06.940Z,7.08
2019-01-16T09:31:03.037Z,7.06
2019-01-16T09:34:04.006Z,7.04
2019-01-16T09:36:44.579Z,7.01
2019-01-16T09:39:36.439Z,7.02
2019-01-16T09:42:31.360Z,6.99
2019-01-16T09:45:19.010Z,6.95
2019-01-16T09:48:06.755Z,6.93
2019-01-16T09:51:02.137Z,6.98
2019-01-16T09:53:51.587Z,6.96
2019-01-16T09:56:43.999Z,6.96
2019-01-16T09:59:30.910Z,6.97
2019-01-16T10:02:29.307Z,6.91
2019-01-16T10:05:17.243Z,6.91
2019-01-16T10:08:09.423Z,6.90
2019-01-16T10:11:06.185Z,6.89
2019-01-16T10:13:47.659Z,6.90
2019-01-16T10:16:37.234Z,6.90
2019-01-16T10:19:44.328Z,6.86
2019-01-16T10:22:32.325Z,6.84
2019-01-16T10:25:15.209Z,6.81
2019-01-16T10:28:10.665Z,6.85
2019-01-16T10:31:07.703Z,6.87
2019-01-16T10:33:55.218Z,6.92
2019-01-16T10:36:44.915Z,6.96
2019-01-16T10:39:34.513Z,6.97
2019-01-16T10:42:32.496Z,6.97
2019-01-16T10:45:13.699Z,6.98
2019-01-16T10:48:01.433Z,7.00
2019-01-16T10:50:49.698Z,7.10
2019-01-16T10:53:37.506Z,7.18
2019-01-16T10:56:19.469Z,7.04
2019-01-16T10:58:56.522Z,7.08
2019-01-16T11:01:49.335Z,7.11
2019-01-16T11:04:41.530Z,7.03
2019-01-16T11:07:30.922Z,7.09
2019-01-16T11:10:23.031Z,7.09
2019-01-16T11:13:12.229Z,7.12
2019-01-16T11:16:00.158Z,7.07
2019-01-16T11:18:52.379Z,7.12
2019-01-16T11:21:40.576Z,7.17
2019-01-16T11:24:47.923Z,7.18
2019-01-16T11:27:41.261Z,7.24
2019-01-16T11:30:30.612Z,7.22
2019-01-16T11:33:19.800Z,7.28
2019-01-16T11:36:03.895Z,7.27
2019-01-16T11:38:55.964Z,7.28
2019-01-16T11:41:44.570Z,7.19
2019-01-16T11:44:42.610Z,7.18
2019-01-16T11:47:31.936Z,7.14
2019-01-16T11:50:16.998Z,7.04
2019-01-16T11:53:24.372Z,6.97
2019-01-16T11:56:16.845Z,6.88
2019-01-16T11:59:06.328Z,6.93
2019-01-16T12:01:45.240Z,6.89
2019-01-16T12:04:35.107Z,6.86
2019-01-16T12:07:24.428Z,6.80
2019-01-16T12:10:09.327Z,6.82
2019-01-16T12:13:04.188Z,6.77
2019-01-16T12:15:51.746Z,6.80
2019-01-16T12:18:39.531Z,6.80
2019-01-16T12:21:26.156Z,6.82
2019-01-16T12:24:06.560Z,6.81
2019-01-16T12:27:14.038Z,6.82
2019-01-16T12:30:09.491Z,6.86
2019-01-16T12:33:02.332Z,6.86
2019-01-16T12:35:50.518Z,6.85
2019-01-16T12:38:39.075Z,6.88
2019-01-16T12:41:26.986Z,6.86
2019-01-16T12:44:19.699Z,6.88
2019-01-16T12:47:12.041Z,6.88
2019-01-16T12:50:00.572Z,6.85
2019-01-16T12:56:14.733Z,6.86
2019-01-16T12:59:18.624Z,6.88
2019-01-16T13:02:27.275Z,6.87
2019-01-16T13:05:28.913Z,6.88
2019-01-16T13:08:38.780Z,6.89
2019-01-16T13:11:40.710Z,6.85
2019-01-16T13:14:48.081Z,6.89
2019-01-16T13:17:52.343Z,6.92
2019-01-16T13:20:37.425Z,6.99
2019-01-16T13:23:26.941Z,6.96
2019-01-16T13:26:14.967Z,6.95
2019-01-16T13:29:03.042Z,7.01
2019-01-16T13:31:50.701Z,6.98
2019-01-16T13:34:38.479Z,7.05
2019-01-16T13:37:47.205Z,7.06
2019-01-16T13:40:55.859Z,7.04
2019-01-16T13:44:04.304Z,6.98
2019-01-16T13:47:06.052Z,6.98
2019-01-16T13:50:14.502Z,6.97
2019-01-16T13:53:15.636Z,6.99
2019-01-16T13:56:24.378Z,6.95
2019-01-16T13:59:21.406Z,6.97
2019-01-16T14:02:29.831Z,6.94
2019-01-16T14:05:20.866Z,6.91
2019-01-16T14:08:09.001Z,6.96
2019-01-16T14:11:10.415Z,6.96
2019-01-16T14:14:08.702Z,6.91
2019-01-16T14:17:07.093Z,6.88
2019-01-16T14:19:55.873Z,6.95
2019-01-16T14:22:45.231Z,6.92
2019-01-16T14:25:49.688Z,6.97
2019-01-16T14:28:51.074Z,6.99
2019-01-16T14:31:39.116Z,7.03
2019-01-16T14:34:22.862Z,7.05
2019-01-16T14:37:22.161Z,7.05
2019-01-16T14:40:17.324Z,7.02
2019-01-16T14:43:12.545Z,7.03
2019-01-16T14:46:13.561Z,7.01
2019-01-16T14:48:54.126Z,6.97
2019-01-16T14:51:41.693Z,6.93
2019-01-16T14:54:42.900Z,6.94
2019-01-16T14:57:30.901Z,6.89
2019-01-16T15:00:34.897Z,6.91
2019-01-16T15:03:22.884Z,6.89
2019-01-16T15:06:10.944Z,6.92
2019-01-16T15:09:05.995Z,6.90
2019-01-16T15:11:49.477Z,6.94
2019-01-16T15:14:39.069Z,6.96
2019-01-16T15:17:27.274Z,6.95
2019-01-16T15:20:31.381Z,6.95
2019-01-16T15:23:12.375Z,6.96
2019-01-16T15:26:19.441Z,6.98
2019-01-16T15:29:11.152Z,6.97
2019-01-16T15:32:09.485Z,6.96
2019-01-16T15:34:57.231Z,6.95
2019-01-16T15:37:38.361Z,6.98
2019-01-16T15:40:29.266Z,6.96
2019-01-16T15:43:21.425Z,6.95
2019-01-16T15:46:12.728Z,6.93
2019-01-16T15:48:58.100Z,6.90
2019-01-16T15:51:46.380Z,6.85
2019-01-16T15:54:32.538Z,6.80
2019-01-16T15:57:27.316Z,6.87
2019-01-16T16:00:16.638Z,6.80
2019-01-16T16:03:05.975Z,6.80
2019-01-16T16:05:55.564Z,6.81
2019-01-16T16:09:00.038Z,6.79
2019-01-16T16:11:52.129Z,6.80
2019-01-16T16:14:44.640Z,6.78
2019-01-16T16:17:52.047Z,6.75
2019-01-16T16:20:39.578Z,6.67
2019-01-16T16:23:25.523Z,6.66
2019-01-16T16:26:18.890Z,6.68
2019-01-16T16:29:06.403Z,6.68
2019-01-16T16:32:07.650Z,6.73
2019-01-16T16:35:00.494Z,6.66
2019-01-16T16:38:01.461Z,6.66
2019-01-16T16:40:40.002Z,6.67
2019-01-16T16:43:40.999Z,6.67
2019-01-16T16:46:35.915Z,6.65
2019-01-16T16:49:23.719Z,6.65
2019-01-16T16:52:25.923Z,6.61
2019-01-16T16:55:16.464Z,6.59
2019-01-16T16:58:11.722Z,6.62
2019-01-16T17:01:06.793Z,6.64
2019-01-16T17:03:58.623Z,6.67
2019-01-16T17:06:46.412Z,6.69
2019-01-16T17:09:23.551Z,6.65
2019-01-16T17:12:28.086Z,6.65
2019-01-16T17:15:29.331Z,6.64
2019-01-16T17:18:17.335Z,6.62
2019-01-16T17:21:09.724Z,6.62
2019-01-16T17:24:00.757Z,6.59
2019-01-16T17:27:05.006Z,6.56
2019-01-16T17:30:00.254Z,6.58
2019-01-16T17:32:38.836Z,6.56
2019-01-16T17:35:46.654Z,6.59
2019-01-16T17:38:37.354Z,6.58
2019-01-16T17:41:44.922Z,6.54
2019-01-16T17:44:32.703Z,6.53
2019-01-16T17:47:20.712Z,6.48
2019-01-16T17:50:18.597Z,6.46
2019-01-16T17:53:06.387Z,6.44
2019-01-16T17:56:04.612Z,6.48
2019-01-16T17:59:05.647Z,6.47
2019-01-16T18:01:54.982Z,6.46
2019-01-16T18:04:51.815Z,6.46
2019-01-16T18:07:41.721Z,6.44
2019-01-16T18:10:31.329Z,6.40
2019-01-16T18:13:39.802Z,6.39
2019-01-16T18:16:42.988Z,6.41
2019-01-16T18:19:51.533Z,6.43
2019-01-16T18:22:52.894Z,6.44
2019-01-16T18:26:01.699Z,6.46
2019-01-16T18:29:05.768Z,6.44
2019-01-16T18:32:14.269Z,6.38
2019-01-16T18:35:15.291Z,6.39
2019-01-16T18:38:13.196Z,6.37
2019-01-16T18:41:01.183Z,6.28
2019-01-16T18:43:53.278Z,6.28
2019-01-16T18:46:54.311Z,6.32
2019-01-16T18:49:38.621Z,6.30
2019-01-16T18:52:39.002Z,6.31
2019-01-16T18:55:28.839Z,6.32
2019-01-16T18:58:24.387Z,6.32
2019-01-16T19:04:32.780Z,6.40
2019-01-16T19:07:33.989Z,6.41
2019-01-16T19:10:24.073Z,6.41
2019-01-16T19:13:28.415Z,6.40
2019-01-16T19:16:16.829Z,6.42
2019-01-16T19:19:14.824Z,6.46
2019-01-16T19:21:56.872Z,6.46
2019-01-16T19:24:48.985Z,6.44
2019-01-16T19:27:36.638Z,6.42
2019-01-16T19:30:48.578Z,6.44
2019-01-16T19:33:43.953Z,6.42
2019-01-16T19:36:31.988Z,6.42
2019-01-16T19:39:36.848Z,6.42
2019-01-16T19:42:41.516Z,6.42
2019-01-16T19:45:40.601Z,6.38
2019-01-16T19:48:30.083Z,6.38
2019-01-16T19:51:19.720Z,6.34
2019-01-16T19:54:07.464Z,6.36
2019-01-16T19:57:00.529Z,6.38
2019-01-16T19:59:48.473Z,6.38
2019-01-16T20:02:38.226Z,6.36
2019-01-16T20:05:26.836Z,6.36
2019-01-16T20:08:09.293Z,6.38
2019-01-16T20:10:56.881Z,6.35
2019-01-16T20:13:41.510Z,6.37
2019-01-16T20:16:23.391Z,6.39
2019-01-16T20:19:10.673Z,6.35
2019-01-16T20:21:52.918Z,6.37
2019-01-16T20:24:51.561Z,6.35
2019-01-16T20:27:39.791Z,6.33
2019-01-16T20:30:27.340Z,6.31
2019-01-16T20:33:26.042Z,6.30
2019-01-16T20:36:10.915Z,6.36
2019-01-16T20:39:11.578Z,6.35
2019-01-16T20:41:58.371Z,6.36
2019-01-16T20:44:45.057Z,6.37
2019-01-16T20:47:49.333Z,6.38
2019-01-16T20:50:47.737Z,6.38
2019-01-16T20:53:37.139Z,6.41
2019-01-16T20:56:26.975Z,6.40
2019-01-16T20:59:16.444Z,6.40
2019-01-16T21:02:07.311Z,6.43
2019-01-16T21:05:07.993Z,6.43
2019-01-16T21:08:06.207Z,6.41
2019-01-16T21:10:54.113Z,6.41
2019-01-16T21:13:46.408Z,6.42
2019-01-16T21:16:30.488Z,6.49
2019-01-16T21:19:26.034Z,6.45
2019-01-16T21:22:14.130Z,6.46
2019-01-16T21:25:03.519Z,6.47
2019-01-16T21:28:04.839Z,6.47
2019-01-16T21:30:45.722Z,6.51
2019-01-16T21:33:33.571Z,6.51
2019-01-16T21:36:25.693Z,6.52
2019-01-16T21:39:13.525Z,6.53
2019-01-16T21:42:02.179Z,6.52
2019-01-16T21:44:45.031Z,6.54
2019-01-16T21:47:39.764Z,6.55
2019-01-16T21:50:35.692Z,6.57
2019-01-16T21:53:30.336Z,6.59
2019-01-16T21:56:14.306Z,6.59
2019-01-16T21:58:55.630Z,6.56
2019-01-16T22:01:53.673Z,6.60
2019-01-16T22:04:48.681Z,6.58
2019-01-16T22:07:42.285Z,6.60
2019-01-16T22:10:49.713Z,6.63
2019-01-16T22:13:28.982Z,6.63
2019-01-16T22:16:08.106Z,6.64
2019-01-16T22:18:55.710Z,6.63
2019-01-16T22:21:42.200Z,6.67
2019-01-16T22:24:34.380Z,6.69
2019-01-16T22:27:22.484Z,6.71
2019-01-16T22:30:10.695Z,6.71
2019-01-16T22:33:11.606Z,6.72
2019-01-16T22:35:50.986Z,6.76
2019-01-16T22:38:40.822Z,6.71
2019-01-16T22:41:36.439Z,6.72
2019-01-16T22:44:30.493Z,6.74
2019-01-16T22:47:22.676Z,6.74
2019-01-16T22:50:10.347Z,6.73
2019-01-16T22:53:00.743Z,6.75
2019-01-16T22:55:50.148Z,6.73
2019-01-16T22:58:48.528Z,6.76
2019-01-16T23:01:25.864Z,6.80
2019-01-16T23:04:24.128Z,6.98
2019-01-16T23:07:13.551Z,6.91
2019-01-16T23:10:01.035Z,6.87
2019-01-16T23:13:05.381Z,6.89
2019-01-16T23:15:54.743Z,6.87
2019-01-16T23:18:44.083Z,6.89
2019-01-16T23:21:42.044Z,6.81
2019-01-16T23:24:31.699Z,6.72
2019-01-16T23:27:19.268Z,6.63
2019-01-16T23:29:57.862Z,6.62
2019-01-16T23:32:43.097Z,6.58
2019-01-16T23:35:50.695Z,6.57
2019-01-16T23:38:38.256Z,6.55
2019-01-16T23:41:37.523Z,6.47
2019-01-16T23:44:31.109Z,6.39
2019-01-16T23:47:18.596Z,6.38
2019-01-16T23:50:10.697Z,6.40
2019-01-16T23:52:48.509Z,6.37
2019-01-16T23:55:36.534Z,6.32
2019-01-16T23:58:26.791Z,6.30
